• Join FlightAware (Why Join?)
  • Login
  • US Flag 
Rudolph Flight #1: Arrived! 
12:38PM EST


 

Airport Tracker/Info


-or-


 

Live Flight TrackerFlight Track Log ✈ SKW6330 ✈ 24-Apr-2013 ✈ KTUS - KLAX

Flight Track Log - Related Links

Times and Time Zones

All times are in EDT time to prevent confusion due to time zone crossing. See the SKW6330 flight status page for this flight to view local times or setup timezone preferences in your user account.

Time Position Orientation Groundspeed Altitude Reporting Facility
EDT Latitude Longitude Course Direction KTS MPH feet Rate Location/Type
04:58PM 32.1233 -110.9494 308° West 171 197 3,300  Level Albuquerque Center
04:58PM 32.1347 -110.9642 312° West 170 196 3,900 1,860 Climbing Albuquerque Center
04:59PM 32.1539 -111.0294 289° West 225 259 5,800 1,740 Climbing Albuquerque Center
05:00PM 32.1744 -111.0856 293° West 260 299 7,200 1,980 Climbing Albuquerque Center
05:01PM 32.2564 -111.3679 278° West  Level FlightAware Approximate
05:01PM 32.2164 -111.1672 301° West 285 328 9,500  Level Albuquerque Center
05:01PM 32.2331 -111.2047 298° West 287 330 10,500 1,500 Climbing Albuquerque Center
05:02PM 32.2890 -111.4835 308° West  Level FlightAware Approximate
05:02PM 32.2592 -111.2517 303° West 298 343 11,100  Level Albuquerque Center
05:03PM 32.3549 -111.5823 308° West  Level FlightAware Approximate
05:03PM 32.3144 -111.3606 301° West 318 366 13,800  Level Albuquerque Center
05:04PM 32.3594 -111.4522 300° West 322 371 15,900 1,740 Climbing Albuquerque Center
05:05PM 32.4056 -111.5431 301° West 321 369 17,400 1,380 Climbing Albuquerque Center
05:06PM 32.4522 -111.6381 300° West 330 380 18,800 1,380 Climbing Albuquerque Center
05:07PM 32.4992 -111.7339 300° West 335 386 20,300 1,320 Climbing Albuquerque Center
05:08PM 32.5486 -111.8322 301° West 343 395 21,600 1,200 Climbing Albuquerque Center
05:09PM 32.6069 -111.9519 300° West 348 400 22,800 900 Climbing Albuquerque Center
05:10PM 32.6575 -112.0542 300° West 355 409 23,500 720 Climbing Albuquerque Center
05:11PM 32.7083 -112.1603 300° West 364 419 24,300 720 Climbing Albuquerque Center
05:12PM 32.7669 -112.2806 300° West 374 430 25,000 720 Climbing Albuquerque Center
05:13PM 32.8200 -112.3883 300° West 379 436 25,800 600 Climbing Albuquerque Center
05:14PM 32.8728 -112.4992 300° West 384 442 26,300 480 Climbing Albuquerque Center
05:15PM 32.9278 -112.6106 300° West 390 449 26,900 480 Climbing Albuquerque Center
05:16PM 32.9919 -112.7178 306° West 399 459 27,400 600 Climbing Albuquerque Center
05:17PM 33.0825 -112.8389 312° West 410 472 28,200 720 Climbing Albuquerque Center
05:18PM 33.1583 -112.9392 312° West 410 472 28,900 660 Climbing Albuquerque Center
05:19PM 33.2333 -113.0392 312° West 407 468 29,600 660 Climbing Albuquerque Center
05:20PM 33.3083 -113.1389 312° West 405 466 30,300 600 Climbing Albuquerque Center
05:22PM 33.3828 -113.2389 312° West 404 465 30,900 660 Climbing Albuquerque Center
05:23PM 33.4586 -113.3389 312° West 406 467 31,700 480 Climbing Albuquerque Center
05:24PM 33.5481 -113.4600 312° West 406 467 32,000 120 Climbing Albuquerque Center
05:25PM 33.6231 -113.5608 312° West 416 479 32,000  Level Albuquerque Center
05:26PM 33.7033 -113.6686 312° West 426 490 32,000  Level Albuquerque Center
05:27PM 33.7839 -113.7792 311° West 436 502 32,000  Level Albuquerque Center
05:28PM 33.8358 -113.9092 296° West 432 497 32,000  Level Albuquerque Center
05:29PM 33.8922 -114.0689 293° West 433 498 32,000  Level Albuquerque Center
05:30PM 33.9397 -114.2039 293° West 436 502 32,000  Level Albuquerque Center
05:31PM 33.9881 -114.3425 293° West 438 504 32,000  Level Albuquerque Center
05:31PM 34.0019 -114.3819 293° West 439 505 32,000  Level Los Angeles Center
05:32PM 34.0503 -114.5167 293° West 440 506 32,000  Level Los Angeles Center
05:33PM 34.0972 -114.6456 294° West 428 493 32,000 -180 Level Los Angeles Center
05:34PM 34.1508 -114.7917 294° West 400 460 31,700 -720 Descending Los Angeles Center
05:35PM 34.1517 -114.9189 270° West 385 443 30,600 -1,020 Descending Los Angeles Center
05:36PM 34.1425 -115.0447 265° West 378 435 29,600 -1,020 Descending Los Angeles Center
05:37PM 34.1308 -115.1850 264° West 411 473 28,600 -780 Descending Los Angeles Center
05:38PM 34.1178 -115.3317 264° West 439 505 28,000 -300 Descending Los Angeles Center
05:39PM 34.1050 -115.5011 265° West 427 491 28,000  Level Los Angeles Center
05:40PM 34.0919 -115.6386 263° West 417 480 28,000  Level Los Angeles Center
05:41PM 34.0797 -115.7769 264° West 417 480 28,000  Level Los Angeles Center
05:43PM 34.0675 -115.9167 264° West 421 484 28,000  Level Los Angeles Center
05:44PM 34.0544 -116.0556 264° West 420 483 28,000  Level Los Angeles Center
05:45PM 34.0397 -116.2278 264° West 430 495 28,000  Level Los Angeles Center
05:46PM 34.0256 -116.3708 263° West 432 497 28,000 -540 Level Los Angeles Center
05:47PM 34.0128 -116.5142 264° West 433 498 26,900 -1,800 Descending Los Angeles Center
05:48PM 34.0000 -116.6536 264° West 419 482 24,300 -2,340 Descending Los Angeles Center
05:49PM 33.9875 -116.7853 264° West 401 461 22,100 -2,040 Descending Los Angeles Center
05:50PM 33.9747 -116.9114 263° West 387 445 20,100 -2,220 Descending Los Angeles Center
05:50PM 33.9667 -116.9833 262° West 368 423 18,900 -2,100 Descending Southern California TRACON
05:51PM 33.9500 -117.1167 261° West 378 435 17,100 -1,260 Descending Southern California TRACON
05:52PM 33.9500 -117.2500 270° West 377 434 16,400 -900 Descending Southern California TRACON
05:53PM 33.9333 -117.3833 261° West 378 435 15,300 -1,440 Descending Southern California TRACON
05:54PM 33.9667 -117.5000 289° West 366 421 13,400 -1,740 Descending Southern California TRACON
05:55PM 34.0167 -117.6000 301° West 333 383 11,900 -1,560 Descending Southern California TRACON
05:56PM 34.0000 -117.7000 259° West 313 360 10,300 -1,500 Descending Southern California TRACON
05:57PM 34.0000 -117.8000 270° West 302 348 8,900 -1,440 Descending Southern California TRACON
05:58PM 33.9833 -117.9000 259° West 289 333 7,600 -1,080 Descending Southern California TRACON
05:59PM 33.9833 -117.9833 270° West 253 291 6,900 -900 Descending Southern California TRACON
06:00PM 33.9667 -118.0667 256° West 221 254 5,800 -1,260 Descending Southern California TRACON
06:01PM 33.9667 -118.1333 270° West 208 239 4,300 -1,320 Descending Southern California TRACON
06:02PM 33.9581 -118.1867 259° West 202 232 3,400 -1,020 Descending Los Angeles Center
06:03PM 33.9519 -118.2475 263° West 192 221 2,400 -1,020 Descending Los Angeles Center